sensor_id;sensor_type;location;lat;lon;timestamp;temperature;humidity
4795;DHT22;2411;47.060;15.064;2022-12-29T00:00:22;-1.30;27.90
4795;DHT22;2411;47.060;15.064;2022-12-29T00:02:49;-1.30;29.50
4795;DHT22;2411;47.060;15.064;2022-12-29T00:05:17;-1.30;34.90
4795;DHT22;2411;47.060;15.064;2022-12-29T00:07:44;-1.30;41.40
4795;DHT22;2411;47.060;15.064;2022-12-29T00:10:11;-1.20;42.80
4795;DHT22;2411;47.060;15.064;2022-12-29T00:12:38;-1.20;43.60
4795;DHT22;2411;47.060;15.064;2022-12-29T00:15:24;-1.10;51.30
4795;DHT22;2411;47.060;15.064;2022-12-29T00:18:04;-0.90;51.10
4795;DHT22;2411;47.060;15.064;2022-12-29T00:20:35;-0.80;45.40
4795;DHT22;2411;47.060;15.064;2022-12-29T00:23:21;-0.70;43.80
4795;DHT22;2411;47.060;15.064;2022-12-29T00:26:17;-0.80;33.10
4795;DHT22;2411;47.060;15.064;2022-12-29T00:29:08;-1.00;26.00
4795;DHT22;2411;47.060;15.064;2022-12-29T00:31:54;-1.20;20.40
4795;DHT22;2411;47.060;15.064;2022-12-29T00:34:40;-1.40;18.20
4795;DHT22;2411;47.060;15.064;2022-12-29T00:37:26;-1.50;20.20
4795;DHT22;2411;47.060;15.064;2022-12-29T00:40:13;-1.70;23.30
4795;DHT22;2411;47.060;15.064;2022-12-29T00:42:59;-1.60;34.50
4795;DHT22;2411;47.060;15.064;2022-12-29T00:45:45;-1.10;50.70
4795;DHT22;2411;47.060;15.064;2022-12-29T00:48:12;-1.10;37.40
4795;DHT22;2411;47.060;15.064;2022-12-29T00:50:40;-1.40;27.50
4795;DHT22;2411;47.060;15.064;2022-12-29T00:53:07;-1.50;28.00
4795;DHT22;2411;47.060;15.064;2022-12-29T00:55:37;-1.50;31.10
4795;DHT22;2411;47.060;15.064;2022-12-29T00:58:05;-1.70;26.50
4795;DHT22;2411;47.060;15.064;2022-12-29T01:00:33;-1.80;30.20
4795;DHT22;2411;47.060;15.064;2022-12-29T01:03:00;-1.90;30.00
4795;DHT22;2411;47.060;15.064;2022-12-29T01:05:27;-1.80;36.00
4795;DHT22;2411;47.060;15.064;2022-12-29T01:07:55;-1.80;38.20
4795;DHT22;2411;47.060;15.064;2022-12-29T01:10:22;-1.80;44.00
4795;DHT22;2411;47.060;15.064;2022-12-29T01:12:49;-1.70;42.60
4795;DHT22;2411;47.060;15.064;2022-12-29T01:15:17;-1.70;45.90
4795;DHT22;2411;47.060;15.064;2022-12-29T01:17:45;-1.60;50.20
4795;DHT22;2411;47.060;15.064;2022-12-29T01:20:12;-1.80;37.20
4795;DHT22;2411;47.060;15.064;2022-12-29T01:22:40;-1.80;42.50
4795;DHT22;2411;47.060;15.064;2022-12-29T01:25:09;-1.60;47.00
4795;DHT22;2411;47.060;15.064;2022-12-29T01:27:36;-1.90;30.20
4795;DHT22;2411;47.060;15.064;2022-12-29T01:30:04;-1.90;35.30
4795;DHT22;2411;47.060;15.064;2022-12-29T01:32:32;-1.80;42.10
4795;DHT22;2411;47.060;15.064;2022-12-29T01:34:59;-1.90;36.80
4795;DHT22;2411;47.060;15.064;2022-12-29T01:37:26;-1.80;42.00
4795;DHT22;2411;47.060;15.064;2022-12-29T01:39:53;-1.80;43.50
4795;DHT22;2411;47.060;15.064;2022-12-29T01:42:24;-1.80;42.10
4795;DHT22;2411;47.060;15.064;2022-12-29T01:44:56;-1.70;46.00
4795;DHT22;2411;47.060;15.064;2022-12-29T01:47:29;-1.60;45.40
4795;DHT22;2411;47.060;15.064;2022-12-29T01:50:08;-1.70;39.20
4795;DHT22;2411;47.060;15.064;2022-12-29T01:52:40;-1.70;40.30
4795;DHT22;2411;47.060;15.064;2022-12-29T01:55:09;-1.70;40.10
4795;DHT22;2411;47.060;15.064;2022-12-29T01:57:41;-1.40;61.60
4795;DHT22;2411;47.060;15.064;2022-12-29T02:00:12;-1.10;50.10
4795;DHT22;2411;47.060;15.064;2022-12-29T02:02:50;-1.40;28.70
4795;DHT22;2411;47.060;15.064;2022-12-29T02:05:40;-1.30;38.50
4795;DHT22;2411;47.060;15.064;2022-12-29T02:08:10;-1.20;41.60
4795;DHT22;2411;47.060;15.064;2022-12-29T02:10:39;-1.20;38.00
4795;DHT22;2411;47.060;15.064;2022-12-29T02:13:07;-1.30;28.40
4795;DHT22;2411;47.060;15.064;2022-12-29T02:16:08;-1.30;31.70
4795;DHT22;2411;47.060;15.064;2022-12-29T02:18:51;-1.00;40.50
4795;DHT22;2411;47.060;15.064;2022-12-29T02:40:40;-0.80;33.20
4795;DHT22;2411;47.060;15.064;2022-12-29T02:43:14;-0.50;29.90
4795;DHT22;2411;47.060;15.064;2022-12-29T02:46:00;-0.50;29.80
4795;DHT22;2411;47.060;15.064;2022-12-29T02:48:43;-0.80;19.90
4795;DHT22;2411;47.060;15.064;2022-12-29T02:51:27;-1.10;22.00
4795;DHT22;2411;47.060;15.064;2022-12-29T02:53:56;-1.00;23.50
4795;DHT22;2411;47.060;15.064;2022-12-29T02:56:44;-1.10;27.70
4795;DHT22;2411;47.060;15.064;2022-12-29T02:59:11;-0.70;28.40
4795;DHT22;2411;47.060;15.064;2022-12-29T03:13:12;-0.70;21.30
4795;DHT22;2411;47.060;15.064;2022-12-29T03:16:24;-0.90;21.00
4795;DHT22;2411;47.060;15.064;2022-12-29T03:19:14;-0.80;28.30
4795;DHT22;2411;47.060;15.064;2022-12-29T03:22:08;-0.70;19.60
4795;DHT22;2411;47.060;15.064;2022-12-29T03:27:44;-0.60;24.60
4795;DHT22;2411;47.060;15.064;2022-12-29T03:30:13;-0.10;22.50
4795;DHT22;2411;47.060;15.064;2022-12-29T03:32:50;-0.40;12.80
4795;DHT22;2411;47.060;15.064;2022-12-29T03:35:21;-0.20;16.50
4795;DHT22;2411;47.060;15.064;2022-12-29T03:37:59;0.20;14.90
4795;DHT22;2411;47.060;15.064;2022-12-29T03:40:31;0.30;13.10
4795;DHT22;2411;47.060;15.064;2022-12-29T03:42:59;0.10;14.00
4795;DHT22;2411;47.060;15.064;2022-12-29T03:45:26;0.50;12.50
4795;DHT22;2411;47.060;15.064;2022-12-29T03:47:54;0.40;11.60
4795;DHT22;2411;47.060;15.064;2022-12-29T03:50:21;0.20;12.40
4795;DHT22;2411;47.060;15.064;2022-12-29T03:52:48;0.40;11.90
4795;DHT22;2411;47.060;15.064;2022-12-29T03:55:15;0.40;11.40
4795;DHT22;2411;47.060;15.064;2022-12-29T03:57:44;0.80;10.30
4795;DHT22;2411;47.060;15.064;2022-12-29T04:00:12;0.90;8.40
4795;DHT22;2411;47.060;15.064;2022-12-29T04:02:40;0.70;5.90
4795;DHT22;2411;47.060;15.064;2022-12-29T04:05:07;0.70;6.40
4795;DHT22;2411;47.060;15.064;2022-12-29T04:07:35;1.30;6.80
4795;DHT22;2411;47.060;15.064;2022-12-29T04:10:02;1.20;4.30
4795;DHT22;2411;47.060;15.064;2022-12-29T04:12:30;1.40;4.70
4795;DHT22;2411;47.060;15.064;2022-12-29T04:14:57;1.40;3.70
4795;DHT22;2411;47.060;15.064;2022-12-29T04:17:24;1.20;3.50
4795;DHT22;2411;47.060;15.064;2022-12-29T04:19:52;0.60;1.00
4795;DHT22;2411;47.060;15.064;2022-12-29T04:22:40;0.20;2.90
4795;DHT22;2411;47.060;15.064;2022-12-29T04:25:07;0.50;5.10
4795;DHT22;2411;47.060;15.064;2022-12-29T04:27:35;0.40;6.20
4795;DHT22;2411;47.060;15.064;2022-12-29T04:30:02;0.30;6.30
4795;DHT22;2411;47.060;15.064;2022-12-29T04:32:30;0.10;6.20
4795;DHT22;2411;47.060;15.064;2022-12-29T04:34:57;0.00;3.80
4795;DHT22;2411;47.060;15.064;2022-12-29T04:37:24;0.00;6.50
4795;DHT22;2411;47.060;15.064;2022-12-29T04:39:51;0.30;20.20
4795;DHT22;2411;47.060;15.064;2022-12-29T04:42:19;0.40;5.90
4795;DHT22;2411;47.060;15.064;2022-12-29T04:44:46;0.80;5.00
4795;DHT22;2411;47.060;15.064;2022-12-29T04:47:13;0.90;4.40
4795;DHT22;2411;47.060;15.064;2022-12-29T04:49:41;1.10;4.40
4795;DHT22;2411;47.060;15.064;2022-12-29T04:52:08;0.90;4.30
4795;DHT22;2411;47.060;15.064;2022-12-29T04:54:35;1.00;3.30
4795;DHT22;2411;47.060;15.064;2022-12-29T04:57:02;1.20;4.00
4795;DHT22;2411;47.060;15.064;2022-12-29T04:59:30;1.20;2.90
4795;DHT22;2411;47.060;15.064;2022-12-29T05:01:57;1.20;17.50
4795;DHT22;2411;47.060;15.064;2022-12-29T05:04:24;1.10;16.00
4795;DHT22;2411;47.060;15.064;2022-12-29T05:06:52;1.10;2.00
4795;DHT22;2411;47.060;15.064;2022-12-29T05:09:19;1.40;2.00
4795;DHT22;2411;47.060;15.064;2022-12-29T05:11:46;1.40;1.00
4795;DHT22;2411;47.060;15.064;2022-12-29T05:14:14;1.30;1.00
4795;DHT22;2411;47.060;15.064;2022-12-29T05:16:41;1.60;1.50
4795;DHT22;2411;47.060;15.064;2022-12-29T05:19:08;1.60;1.00
4795;DHT22;2411;47.060;15.064;2022-12-29T05:21:35;1.40;1.00
4795;DHT22;2411;47.060;15.064;2022-12-29T05:24:03;1.30;2.20
4795;DHT22;2411;47.060;15.064;2022-12-29T05:26:30;1.10;1.20
4795;DHT22;2411;47.060;15.064;2022-12-29T05:28:57;1.20;1.00
4795;DHT22;2411;47.060;15.064;2022-12-29T05:31:25;1.00;1.00
4795;DHT22;2411;47.060;15.064;2022-12-29T05:33:52;1.00;1.00
4795;DHT22;2411;47.060;15.064;2022-12-29T05:36:20;0.70;1.00
4795;DHT22;2411;47.060;15.064;2022-12-29T05:38:47;0.40;1.00
4795;DHT22;2411;47.060;15.064;2022-12-29T05:41:14;0.30;2.50
4795;DHT22;2411;47.060;15.064;2022-12-29T05:43:41;0.40;1.00
4795;DHT22;2411;47.060;15.064;2022-12-29T05:46:09;0.30;1.20
4795;DHT22;2411;47.060;15.064;2022-12-29T05:48:37;0.40;4.40
4795;DHT22;2411;47.060;15.064;2022-12-29T05:51:04;0.50;1.00
4795;DHT22;2411;47.060;15.064;2022-12-29T05:53:31;0.40;1.00
4795;DHT22;2411;47.060;15.064;2022-12-29T05:55:59;0.20;1.50
4795;DHT22;2411;47.060;15.064;2022-12-29T05:58:26;0.00;3.10
4795;DHT22;2411;47.060;15.064;2022-12-29T06:00:53;0.10;3.40
4795;DHT22;2411;47.060;15.064;2022-12-29T06:03:21;0.30;2.40
4795;DHT22;2411;47.060;15.064;2022-12-29T06:05:48;0.30;3.70
4795;DHT22;2411;47.060;15.064;2022-12-29T06:08:15;0.50;3.60
4795;DHT22;2411;47.060;15.064;2022-12-29T06:10:43;0.30;3.60
4795;DHT22;2411;47.060;15.064;2022-12-29T06:13:10;0.30;4.50
4795;DHT22;2411;47.060;15.064;2022-12-29T06:15:37;0.30;3.70
4795;DHT22;2411;47.060;15.064;2022-12-29T06:18:05;0.30;3.20
4795;DHT22;2411;47.060;15.064;2022-12-29T06:20:32;0.60;2.50
4795;DHT22;2411;47.060;15.064;2022-12-29T06:22:59;0.70;1.40
4795;DHT22;2411;47.060;15.064;2022-12-29T06:25:26;1.40;5.80
4795;DHT22;2411;47.060;15.064;2022-12-29T06:27:54;1.60;4.60
4795;DHT22;2411;47.060;15.064;2022-12-29T06:30:21;0.70;1.00
4795;DHT22;2411;47.060;15.064;2022-12-29T06:32:48;0.40;1.00
4795;DHT22;2411;47.060;15.064;2022-12-29T06:35:15;0.10;1.40
4795;DHT22;2411;47.060;15.064;2022-12-29T06:37:43;-0.20;1.00
4795;DHT22;2411;47.060;15.064;2022-12-29T06:40:10;-0.20;1.00
4795;DHT22;2411;47.060;15.064;2022-12-29T06:42:38;-0.40;1.10
4795;DHT22;2411;47.060;15.064;2022-12-29T06:45:06;-0.40;2.80
4795;DHT22;2411;47.060;15.064;2022-12-29T06:47:35;-0.40;2.80
4795;DHT22;2411;47.060;15.064;2022-12-29T06:50:02;-0.50;2.80
4795;DHT22;2411;47.060;15.064;2022-12-29T06:52:30;-0.60;3.20
4795;DHT22;2411;47.060;15.064;2022-12-29T06:54:57;-0.70;4.00
4795;DHT22;2411;47.060;15.064;2022-12-29T06:57:25;-0.80;4.80
4795;DHT22;2411;47.060;15.064;2022-12-29T06:59:53;-0.60;6.20
4795;DHT22;2411;47.060;15.064;2022-12-29T07:02:22;-0.20;4.40
4795;DHT22;2411;47.060;15.064;2022-12-29T07:04:52;0.00;1.80
4795;DHT22;2411;47.060;15.064;2022-12-29T07:07:20;-0.10;2.50
4795;DHT22;2411;47.060;15.064;2022-12-29T07:09:48;-0.10;1.60
4795;DHT22;2411;47.060;15.064;2022-12-29T07:12:15;-0.20;3.30
4795;DHT22;2411;47.060;15.064;2022-12-29T07:14:43;-0.10;2.10
4795;DHT22;2411;47.060;15.064;2022-12-29T07:17:10;0.10;2.10
4795;DHT22;2411;47.060;15.064;2022-12-29T07:19:37;0.10;3.90
4795;DHT22;2411;47.060;15.064;2022-12-29T07:22:05;0.30;1.80
4795;DHT22;2411;47.060;15.064;2022-12-29T07:24:32;0.70;1.00
4795;DHT22;2411;47.060;15.064;2022-12-29T07:27:00;1.20;1.00
4795;DHT22;2411;47.060;15.064;2022-12-29T07:29:27;1.20;1.00
4795;DHT22;2411;47.060;15.064;2022-12-29T07:31:54;1.30;1.00
4795;DHT22;2411;47.060;15.064;2022-12-29T07:34:22;1.30;1.00
4795;DHT22;2411;47.060;15.064;2022-12-29T07:36:49;1.50;1.00
4795;DHT22;2411;47.060;15.064;2022-12-29T07:39:16;1.40;1.00
4795;DHT22;2411;47.060;15.064;2022-12-29T07:41:43;1.30;1.00
4795;DHT22;2411;47.060;15.064;2022-12-29T07:44:11;1.20;1.00
4795;DHT22;2411;47.060;15.064;2022-12-29T07:46:38;1.20;1.00
4795;DHT22;2411;47.060;15.064;2022-12-29T07:49:20;1.10;1.00
4795;DHT22;2411;47.060;15.064;2022-12-29T07:51:48;1.20;1.00
4795;DHT22;2411;47.060;15.064;2022-12-29T07:54:15;1.30;1.00
4795;DHT22;2411;47.060;15.064;2022-12-29T07:56:45;1.50;1.00
4795;DHT22;2411;47.060;15.064;2022-12-29T07:59:12;1.50;1.00
4795;DHT22;2411;47.060;15.064;2022-12-29T08:01:40;1.50;2.40
4795;DHT22;2411;47.060;15.064;2022-12-29T08:04:07;1.40;1.90
4795;DHT22;2411;47.060;15.064;2022-12-29T08:06:35;1.50;1.50
4795;DHT22;2411;47.060;15.064;2022-12-29T08:09:04;1.50;2.80
4795;DHT22;2411;47.060;15.064;2022-12-29T08:11:45;1.50;2.60
4795;DHT22;2411;47.060;15.064;2022-12-29T08:14:12;1.40;3.30
4795;DHT22;2411;47.060;15.064;2022-12-29T08:16:40;1.80;2.20
4795;DHT22;2411;47.060;15.064;2022-12-29T08:19:09;2.00;1.70
4795;DHT22;2411;47.060;15.064;2022-12-29T08:21:37;2.00;3.50
4795;DHT22;2411;47.060;15.064;2022-12-29T08:24:04;2.10;3.90
4795;DHT22;2411;47.060;15.064;2022-12-29T08:26:32;1.90;4.70
4795;DHT22;2411;47.060;15.064;2022-12-29T08:28:59;1.80;4.10
4795;DHT22;2411;47.060;15.064;2022-12-29T08:31:26;1.80;3.80
4795;DHT22;2411;47.060;15.064;2022-12-29T08:33:54;1.80;4.30
4795;DHT22;2411;47.060;15.064;2022-12-29T08:36:21;1.80;4.70
4795;DHT22;2411;47.060;15.064;2022-12-29T08:38:49;1.90;3.80
4795;DHT22;2411;47.060;15.064;2022-12-29T08:41:16;2.00;3.90
4795;DHT22;2411;47.060;15.064;2022-12-29T08:43:47;2.20;4.00
4795;DHT22;2411;47.060;15.064;2022-12-29T08:46:15;2.80;4.40
4795;DHT22;2411;47.060;15.064;2022-12-29T08:48:42;2.80;2.80
4795;DHT22;2411;47.060;15.064;2022-12-29T08:51:10;2.90;3.40
4795;DHT22;2411;47.060;15.064;2022-12-29T08:53:37;2.90;4.30
4795;DHT22;2411;47.060;15.064;2022-12-29T08:56:05;3.10;3.20
4795;DHT22;2411;47.060;15.064;2022-12-29T08:58:32;3.50;5.00
4795;DHT22;2411;47.060;15.064;2022-12-29T09:00:59;3.50;5.40
4795;DHT22;2411;47.060;15.064;2022-12-29T09:03:27;3.60;4.40
4795;DHT22;2411;47.060;15.064;2022-12-29T09:06:16;3.90;3.50
4795;DHT22;2411;47.060;15.064;2022-12-29T09:08:44;4.10;4.10
4795;DHT22;2411;47.060;15.064;2022-12-29T09:11:14;4.20;4.10
4795;DHT22;2411;47.060;15.064;2022-12-29T09:13:42;4.40;4.50
4795;DHT22;2411;47.060;15.064;2022-12-29T09:16:10;4.30;3.30
4795;DHT22;2411;47.060;15.064;2022-12-29T09:18:38;4.50;18.00
4795;DHT22;2411;47.060;15.064;2022-12-29T09:21:06;4.50;4.00
4795;DHT22;2411;47.060;15.064;2022-12-29T09:23:33;4.50;4.00
4795;DHT22;2411;47.060;15.064;2022-12-29T09:26:01;4.60;3.60
4795;DHT22;2411;47.060;15.064;2022-12-29T09:28:29;4.60;3.80
4795;DHT22;2411;47.060;15.064;2022-12-29T09:30:58;4.50;3.40
4795;DHT22;2411;47.060;15.064;2022-12-29T09:33:26;4.70;3.20
4795;DHT22;2411;47.060;15.064;2022-12-29T09:35:55;4.90;3.40
4795;DHT22;2411;47.060;15.064;2022-12-29T09:38:24;5.00;3.00
4795;DHT22;2411;47.060;15.064;2022-12-29T09:40:55;5.00;4.90
4795;DHT22;2411;47.060;15.064;2022-12-29T09:43:29;5.10;3.70
4795;DHT22;2411;47.060;15.064;2022-12-29T09:51:24;5.40;3.70
4795;DHT22;2411;47.060;15.064;2022-12-29T09:54:19;5.60;3.90
4795;DHT22;2411;47.060;15.064;2022-12-29T09:56:47;5.80;4.20
4795;DHT22;2411;47.060;15.064;2022-12-29T09:59:24;5.90;4.50
4795;DHT22;2411;47.060;15.064;2022-12-29T10:04:47;6.00;3.80
4795;DHT22;2411;47.060;15.064;2022-12-29T10:07:38;6.20;4.00
4795;DHT22;2411;47.060;15.064;2022-12-29T10:10:39;6.40;3.90
4795;DHT22;2411;47.060;15.064;2022-12-29T10:13:23;6.40;4.10
4795;DHT22;2411;47.060;15.064;2022-12-29T10:16:05;6.40;4.60
4795;DHT22;2411;47.060;15.064;2022-12-29T10:18:59;6.60;4.70
4795;DHT22;2411;47.060;15.064;2022-12-29T10:24:22;6.80;4.10
4795;DHT22;2411;47.060;15.064;2022-12-29T10:26:51;7.00;4.50
4795;DHT22;2411;47.060;15.064;2022-12-29T10:29:22;7.10;5.40
4795;DHT22;2411;47.060;15.064;2022-12-29T10:34:36;7.20;4.50
4795;DHT22;2411;47.060;15.064;2022-12-29T10:37:38;7.30;5.10
4795;DHT22;2411;47.060;15.064;2022-12-29T10:42:53;7.90;4.10
4795;DHT22;2411;47.060;15.064;2022-12-29T10:45:24;8.10;4.90
4795;DHT22;2411;47.060;15.064;2022-12-29T10:50:24;8.70;5.70
4795;DHT22;2411;47.060;15.064;2022-12-29T10:52:53;8.90;5.00
4795;DHT22;2411;47.060;15.064;2022-12-29T10:55:36;9.00;4.90
4795;DHT22;2411;47.060;15.064;2022-12-29T10:58:06;9.20;4.60
4795;DHT22;2411;47.060;15.064;2022-12-29T11:00:34;9.30;5.00
4795;DHT22;2411;47.060;15.064;2022-12-29T11:06:04;9.50;3.90
4795;DHT22;2411;47.060;15.064;2022-12-29T11:08:38;9.60;4.50
4795;DHT22;2411;47.060;15.064;2022-12-29T11:11:08;9.80;3.90
4795;DHT22;2411;47.060;15.064;2022-12-29T11:13:51;9.90;3.00
4795;DHT22;2411;47.060;15.064;2022-12-29T11:16:33;10.00;3.70
4795;DHT22;2411;47.060;15.064;2022-12-29T11:19:02;9.80;3.00
4795;DHT22;2411;47.060;15.064;2022-12-29T11:21:38;9.80;2.20
4795;DHT22;2411;47.060;15.064;2022-12-29T11:26:46;9.90;1.70
4795;DHT22;2411;47.060;15.064;2022-12-29T11:29:26;10.00;1.00
4795;DHT22;2411;47.060;15.064;2022-12-29T11:31:57;10.00;1.00
4795;DHT22;2411;47.060;15.064;2022-12-29T11:42:31;10.20;1.00
4795;DHT22;2411;47.060;15.064;2022-12-29T11:45:06;10.30;1.00
4795;DHT22;2411;47.060;15.064;2022-12-29T11:47:37;10.30;1.00
4795;DHT22;2411;47.060;15.064;2022-12-29T11:50:07;10.30;1.00
4795;DHT22;2411;47.060;15.064;2022-12-29T11:52:37;10.30;1.00
4795;DHT22;2411;47.060;15.064;2022-12-29T11:55:17;10.30;1.00
4795;DHT22;2411;47.060;15.064;2022-12-29T11:57:45;10.30;1.00
4795;DHT22;2411;47.060;15.064;2022-12-29T12:00:21;10.30;1.00
4795;DHT22;2411;47.060;15.064;2022-12-29T12:02:57;10.30;1.00
4795;DHT22;2411;47.060;15.064;2022-12-29T12:10:53;10.50;1.00
4795;DHT22;2411;47.060;15.064;2022-12-29T12:13:34;10.50;1.00
4795;DHT22;2411;47.060;15.064;2022-12-29T12:16:10;10.50;1.00
4795;DHT22;2411;47.060;15.064;2022-12-29T12:18:46;10.50;1.00
4795;DHT22;2411;47.060;15.064;2022-12-29T12:27:08;10.50;1.00
4795;DHT22;2411;47.060;15.064;2022-12-29T12:29:59;10.50;1.00
4795;DHT22;2411;47.060;15.064;2022-12-29T12:35:45;10.50;1.00
4795;DHT22;2411;47.060;15.064;2022-12-29T12:41:16;10.50;1.00
4795;DHT22;2411;47.060;15.064;2022-12-29T12:52:38;10.70;1.00
4795;DHT22;2411;47.060;15.064;2022-12-29T12:55:30;10.70;1.00
4795;DHT22;2411;47.060;15.064;2022-12-29T13:23:03;10.60;1.00
4795;DHT22;2411;47.060;15.064;2022-12-29T13:25:41;10.60;1.00
4795;DHT22;2411;47.060;15.064;2022-12-29T13:36:24;10.60;1.00
4795;DHT22;2411;47.060;15.064;2022-12-29T13:39:09;10.60;1.00
4795;DHT22;2411;47.060;15.064;2022-12-29T13:41:53;10.60;1.00
4795;DHT22;2411;47.060;15.064;2022-12-29T13:47:38;10.60;1.00
4795;DHT22;2411;47.060;15.064;2022-12-29T13:50:19;10.60;1.00
4795;DHT22;2411;47.060;15.064;2022-12-29T13:56:03;10.50;1.00
4795;DHT22;2411;47.060;15.064;2022-12-29T14:01:35;10.50;1.00
4795;DHT22;2411;47.060;15.064;2022-12-29T14:04:14;10.40;1.00
4795;DHT22;2411;47.060;15.064;2022-12-29T14:07:13;10.40;1.00
4795;DHT22;2411;47.060;15.064;2022-12-29T14:09:47;10.40;1.00
4795;DHT22;2411;47.060;15.064;2022-12-29T14:12:38;10.40;1.00
4795;DHT22;2411;47.060;15.064;2022-12-29T14:15:21;10.40;1.00
4795;DHT22;2411;47.060;15.064;2022-12-29T14:18:14;10.40;1.00
4795;DHT22;2411;47.060;15.064;2022-12-29T14:20:57;10.20;1.00
4795;DHT22;2411;47.060;15.064;2022-12-29T14:23:35;10.20;1.00
4795;DHT22;2411;47.060;15.064;2022-12-29T14:28:38;10.10;1.00
4795;DHT22;2411;47.060;15.064;2022-12-29T14:36:37;9.80;1.00
4795;DHT22;2411;47.060;15.064;2022-12-29T14:39:39;9.70;1.00
4795;DHT22;2411;47.060;15.064;2022-12-29T14:45:00;9.50;1.00
4795;DHT22;2411;47.060;15.064;2022-12-29T14:47:38;9.30;1.00
4795;DHT22;2411;47.060;15.064;2022-12-29T14:53:00;9.20;1.00
4795;DHT22;2411;47.060;15.064;2022-12-29T14:58:53;8.90;1.00
4795;DHT22;2411;47.060;15.064;2022-12-29T15:01:43;9.00;1.00
4795;DHT22;2411;47.060;15.064;2022-12-29T15:04:27;8.90;1.00
4795;DHT22;2411;47.060;15.064;2022-12-29T15:06:57;8.70;1.00
4795;DHT22;2411;47.060;15.064;2022-12-29T15:12:37;8.90;1.00
4795;DHT22;2411;47.060;15.064;2022-12-29T15:15:36;8.80;1.00
4795;DHT22;2411;47.060;15.064;2022-12-29T15:18:28;9.00;1.00
4795;DHT22;2411;47.060;15.064;2022-12-29T15:21:01;8.90;1.00
4795;DHT22;2411;47.060;15.064;2022-12-29T15:23:31;8.90;1.00
4795;DHT22;2411;47.060;15.064;2022-12-29T15:26:05;8.90;1.00
4795;DHT22;2411;47.060;15.064;2022-12-29T15:28:46;8.80;1.00
4795;DHT22;2411;47.060;15.064;2022-12-29T15:31:22;8.60;1.00
4795;DHT22;2411;47.060;15.064;2022-12-29T15:34:23;8.50;1.00
4795;DHT22;2411;47.060;15.064;2022-12-29T15:36:50;8.30;1.00
4795;DHT22;2411;47.060;15.064;2022-12-29T15:39:27;8.20;1.00
4795;DHT22;2411;47.060;15.064;2022-12-29T15:44:47;7.90;1.00
4795;DHT22;2411;47.060;15.064;2022-12-29T15:47:26;8.00;1.00
4795;DHT22;2411;47.060;15.064;2022-12-29T15:52:37;8.80;1.00
4795;DHT22;2411;47.060;15.064;2022-12-29T15:55:18;8.50;1.00
4795;DHT22;2411;47.060;15.064;2022-12-29T15:57:46;8.40;1.00
4795;DHT22;2411;47.060;15.064;2022-12-29T16:00:29;8.40;1.00
4795;DHT22;2411;47.060;15.064;2022-12-29T16:02:59;8.40;1.00
4795;DHT22;2411;47.060;15.064;2022-12-29T16:05:38;8.40;1.00
4795;DHT22;2411;47.060;15.064;2022-12-29T16:08:37;8.50;1.00
4795;DHT22;2411;47.060;15.064;2022-12-29T16:13:48;8.60;1.00
4795;DHT22;2411;47.060;15.064;2022-12-29T16:16:35;8.40;1.00
4795;DHT22;2411;47.060;15.064;2022-12-29T16:19:14;8.10;1.00
4795;DHT22;2411;47.060;15.064;2022-12-29T16:21:45;7.80;1.00
4795;DHT22;2411;47.060;15.064;2022-12-29T16:24:15;7.40;1.00
4795;DHT22;2411;47.060;15.064;2022-12-29T16:27:07;7.20;1.00
4795;DHT22;2411;47.060;15.064;2022-12-29T16:29:36;7.40;1.00
4795;DHT22;2411;47.060;15.064;2022-12-29T16:32:29;7.30;1.00
4795;DHT22;2411;47.060;15.064;2022-12-29T16:35:13;7.00;1.00
4795;DHT22;2411;47.060;15.064;2022-12-29T16:37:43;7.00;1.00
4795;DHT22;2411;47.060;15.064;2022-12-29T16:40:24;6.90;1.00
4795;DHT22;2411;47.060;15.064;2022-12-29T16:43:01;6.80;1.00
4795;DHT22;2411;47.060;15.064;2022-12-29T16:50:45;6.60;1.00
4795;DHT22;2411;47.060;15.064;2022-12-29T16:53:26;6.50;1.00
4795;DHT22;2411;47.060;15.064;2022-12-29T16:55:55;6.30;1.00
4795;DHT22;2411;47.060;15.064;2022-12-29T16:58:25;6.20;1.00
4795;DHT22;2411;47.060;15.064;2022-12-29T17:00:55;6.00;1.00
4795;DHT22;2411;47.060;15.064;2022-12-29T17:03:38;6.00;1.00
4795;DHT22;2411;47.060;15.064;2022-12-29T17:06:19;6.00;1.00
4795;DHT22;2411;47.060;15.064;2022-12-29T17:08:49;6.00;1.00
4795;DHT22;2411;47.060;15.064;2022-12-29T17:11:33;5.70;1.00
4795;DHT22;2411;47.060;15.064;2022-12-29T17:17:28;5.70;1.00
4795;DHT22;2411;47.060;15.064;2022-12-29T17:20:04;5.60;1.00
4795;DHT22;2411;47.060;15.064;2022-12-29T17:22:32;5.40;1.00
4795;DHT22;2411;47.060;15.064;2022-12-29T17:25:00;5.30;1.00
4795;DHT22;2411;47.060;15.064;2022-12-29T17:30:00;4.90;1.00
4795;DHT22;2411;47.060;15.064;2022-12-29T17:32:28;4.70;1.00
4795;DHT22;2411;47.060;15.064;2022-12-29T17:34:55;5.00;1.00
4795;DHT22;2411;47.060;15.064;2022-12-29T17:37:34;4.80;1.00
4795;DHT22;2411;47.060;15.064;2022-12-29T17:40:05;4.70;1.00
4795;DHT22;2411;47.060;15.064;2022-12-29T17:42:36;4.60;1.00
4795;DHT22;2411;47.060;15.064;2022-12-29T17:45:05;4.60;1.00
4795;DHT22;2411;47.060;15.064;2022-12-29T17:47:32;4.80;1.00
4795;DHT22;2411;47.060;15.064;2022-12-29T17:49:59;4.80;1.00
4795;DHT22;2411;47.060;15.064;2022-12-29T17:52:27;4.50;1.00
4795;DHT22;2411;47.060;15.064;2022-12-29T17:54:54;4.70;1.00
4795;DHT22;2411;47.060;15.064;2022-12-29T17:57:22;4.70;1.00
4795;DHT22;2411;47.060;15.064;2022-12-29T17:59:49;4.70;1.00
4795;DHT22;2411;47.060;15.064;2022-12-29T18:04:51;4.60;1.00
4795;DHT22;2411;47.060;15.064;2022-12-29T18:07:18;4.70;1.00
4795;DHT22;2411;47.060;15.064;2022-12-29T18:09:45;4.90;1.00
4795;DHT22;2411;47.060;15.064;2022-12-29T18:14:52;4.60;1.00
4795;DHT22;2411;47.060;15.064;2022-12-29T18:17:19;4.50;1.00
4795;DHT22;2411;47.060;15.064;2022-12-29T18:19:46;4.50;1.00
4795;DHT22;2411;47.060;15.064;2022-12-29T18:22:13;4.70;1.00
4795;DHT22;2411;47.060;15.064;2022-12-29T18:24:41;4.80;1.00
4795;DHT22;2411;47.060;15.064;2022-12-29T18:27:13;5.10;1.00
4795;DHT22;2411;47.060;15.064;2022-12-29T18:29:41;5.10;1.00
4795;DHT22;2411;47.060;15.064;2022-12-29T18:32:12;4.80;1.00
4795;DHT22;2411;47.060;15.064;2022-12-29T18:34:40;4.90;1.00
4795;DHT22;2411;47.060;15.064;2022-12-29T18:37:09;4.50;1.00
4795;DHT22;2411;47.060;15.064;2022-12-29T18:39:37;4.40;1.00
4795;DHT22;2411;47.060;15.064;2022-12-29T18:42:05;4.40;1.00
4795;DHT22;2411;47.060;15.064;2022-12-29T18:44:33;4.20;1.00
4795;DHT22;2411;47.060;15.064;2022-12-29T18:47:00;4.10;1.00
4795;DHT22;2411;47.060;15.064;2022-12-29T18:49:27;4.00;1.00
4795;DHT22;2411;47.060;15.064;2022-12-29T18:51:55;4.00;1.00
4795;DHT22;2411;47.060;15.064;2022-12-29T18:54:32;3.60;1.00
4795;DHT22;2411;47.060;15.064;2022-12-29T18:57:00;3.70;1.00
4795;DHT22;2411;47.060;15.064;2022-12-29T18:59:27;3.90;1.00
4795;DHT22;2411;47.060;15.064;2022-12-29T19:01:54;3.70;1.00
4795;DHT22;2411;47.060;15.064;2022-12-29T19:04:21;4.20;1.00
4795;DHT22;2411;47.060;15.064;2022-12-29T19:06:49;4.30;1.00
4795;DHT22;2411;47.060;15.064;2022-12-29T19:09:17;4.10;1.00
4795;DHT22;2411;47.060;15.064;2022-12-29T19:11:44;4.00;1.00
4795;DHT22;2411;47.060;15.064;2022-12-29T19:14:15;4.20;1.00
4795;DHT22;2411;47.060;15.064;2022-12-29T19:16:45;4.00;1.00
4795;DHT22;2411;47.060;15.064;2022-12-29T19:19:14;3.70;1.00
4795;DHT22;2411;47.060;15.064;2022-12-29T19:21:42;3.80;1.00
4795;DHT22;2411;47.060;15.064;2022-12-29T19:24:10;4.10;1.00
4795;DHT22;2411;47.060;15.064;2022-12-29T19:26:39;4.00;1.00
4795;DHT22;2411;47.060;15.064;2022-12-29T19:29:12;4.20;1.00
4795;DHT22;2411;47.060;15.064;2022-12-29T19:31:40;4.50;1.00
4795;DHT22;2411;47.060;15.064;2022-12-29T19:34:11;4.30;1.00
4795;DHT22;2411;47.060;15.064;2022-12-29T19:36:39;4.20;1.00
4795;DHT22;2411;47.060;15.064;2022-12-29T19:39:06;4.30;1.00
4795;DHT22;2411;47.060;15.064;2022-12-29T19:41:34;4.00;1.00